Time;durP1;ratioP1;P1;durP2;ratioP2;P2;SDS_P1;SDS_P2;PMS_P1;PMS_P2;Temp;Humidity;BMP_temperature;BMP_pressure;BME280_temperature;BME280_humidity;BME280_pressure;Samples;Min_cycle;Max_cycle;Signal;HPM_P1;HPM_P2
2021/08/07 00:00:44;;;;;;;0.43;0.43;;;19.80;69.50;;;;;;4996636;28;20193;-73
2021/08/07 00:03:10;;;;;;;0.30;0.30;;;19.80;69.40;;;;;;4999384;28;20203;-73
2021/08/07 00:05:36;;;;;;;0.30;0.30;;;19.80;70.20;;;;;;5006618;28;20199;-73
2021/08/07 00:08:02;;;;;;;0.30;0.30;;;19.70;69.90;;;;;;4999229;28;20220;-73
2021/08/07 00:10:27;;;;;;;0.20;0.20;;;19.70;69.80;;;;;;5001423;28;20676;-72
2021/08/07 00:12:53;;;;;;;0.50;0.50;;;19.70;70.00;;;;;;5007262;28;20188;-72
2021/08/07 00:15:19;;;;;;;0.35;0.35;;;19.60;70.20;;;;;;5005301;28;20197;-73
2021/08/07 00:17:45;;;;;;;0.38;0.38;;;19.60;70.40;;;;;;5001747;28;20212;-73
2021/08/07 00:20:10;;;;;;;0.30;0.30;;;19.60;70.40;;;;;;5002145;28;20224;-72
2021/08/07 00:22:36;;;;;;;0.40;0.40;;;19.60;70.30;;;;;;5000740;28;20185;-72
2021/08/07 00:25:03;;;;;;;0.30;0.30;;;19.60;70.50;;;;;;5010953;28;20659;-73
2021/08/07 00:27:29;;;;;;;0.30;0.30;;;19.60;69.50;;;;;;5007774;28;20692;-73
2021/08/07 00:29:55;;;;;;;0.40;0.40;;;19.60;70.30;;;;;;5008206;28;20188;-73
2021/08/07 00:32:21;;;;;;;0.40;0.40;;;19.60;69.70;;;;;;5006350;28;20227;-72
2021/08/07 00:34:46;;;;;;;0.40;0.40;;;19.50;69.80;;;;;;5010524;28;20673;-72
2021/08/07 00:37:12;;;;;;;0.40;0.40;;;19.50;70.20;;;;;;5004057;28;20240;-72
2021/08/07 00:39:38;;;;;;;0.40;0.40;;;19.50;69.90;;;;;;5008989;28;20191;-73
2021/08/07 00:42:04;;;;;;;0.40;0.40;;;19.50;69.90;;;;;;5004689;28;20279;-73
2021/08/07 00:44:29;;;;;;;0.40;0.40;;;19.40;69.90;;;;;;5009702;28;20188;-73
2021/08/07 00:46:55;;;;;;;0.40;0.40;;;19.40;70.00;;;;;;5007982;28;20818;-72
2021/08/07 00:49:21;;;;;;;0.30;0.30;;;19.40;70.00;;;;;;5003092;28;20193;-72
2021/08/07 00:51:47;;;;;;;0.40;0.40;;;19.40;71.10;;;;;;4999185;28;20241;-72
2021/08/07 00:54:13;;;;;;;0.30;0.30;;;19.40;70.40;;;;;;5009818;28;20208;-72
2021/08/07 00:56:39;;;;;;;0.38;0.38;;;19.30;70.70;;;;;;5001972;28;20190;-72
2021/08/07 00:59:05;;;;;;;0.65;0.38;;;19.30;70.40;;;;;;5008619;28;20203;-72
2021/08/07 01:01:41;;;;;;;0.60;0.45;;;19.30;70.60;;;;;;5004202;28;20189;-73
2021/08/07 01:04:13;;;;;;;0.30;0.30;;;19.30;70.90;;;;;;5010079;28;20188;-72
2021/08/07 01:07:04;;;;;;;0.40;0.40;;;19.30;70.60;;;;;;5006529;28;20185;-72
2021/08/07 01:10:14;;;;;;;0.32;0.32;;;19.30;71.60;;;;;;4995234;28;20675;-73
2021/08/07 01:13:02;;;;;;;0.40;0.40;;;19.20;71.40;;;;;;5000726;28;20204;-72
2021/08/07 01:15:33;;;;;;;1.30;0.50;;;19.20;71.80;;;;;;5008482;28;20178;-72
2021/08/07 01:18:01;;;;;;;0.35;0.35;;;19.20;71.60;;;;;;5000882;28;20686;-72
2021/08/07 01:20:51;;;;;;;0.40;0.40;;;19.20;71.00;;;;;;5003758;28;20576;-72
2021/08/07 01:23:27;;;;;;;0.40;0.40;;;19.20;70.90;;;;;;5003648;28;20192;-73
2021/08/07 01:25:56;;;;;;;1.05;0.40;;;19.20;71.10;;;;;;4998285;28;20193;-72
2021/08/07 01:28:25;;;;;;;0.40;0.40;;;19.20;71.20;;;;;;5005671;28;20184;-72
2021/08/07 01:30:53;;;;;;;0.30;0.30;;;19.10;71.10;;;;;;5001988;28;20354;-72
2021/08/07 01:33:20;;;;;;;0.57;0.43;;;19.10;71.40;;;;;;5003461;28;20182;-73
2021/08/07 01:35:48;;;;;;;0.47;0.40;;;19.10;71.00;;;;;;5002194;28;20178;-72
2021/08/07 01:38:15;;;;;;;0.40;0.40;;;19.10;71.60;;;;;;5000172;28;20235;-72
2021/08/07 01:40:41;;;;;;;0.30;0.30;;;19.10;71.50;;;;;;5004148;28;20224;-72
2021/08/07 01:43:06;;;;;;;0.40;0.40;;;19.10;71.30;;;;;;5022383;28;20215;-72
2021/08/07 01:45:32;;;;;;;1.15;0.43;;;19.10;71.70;;;;;;4993219;28;20185;-72
2021/08/07 01:48:22;;;;;;;0.40;0.40;;;19.10;71.70;;;;;;4999878;28;20196;-73
2021/08/07 01:51:11;;;;;;;0.65;0.65;;;19.00;71.60;;;;;;4999470;28;20240;-73
2021/08/07 01:53:39;;;;;;;0.40;0.40;;;19.00;71.80;;;;;;5004287;28;20190;-74
2021/08/07 01:56:19;;;;;;;0.45;0.45;;;19.00;72.00;;;;;;5006927;28;20192;-72
2021/08/07 01:59:19;;;;;;;0.47;0.47;;;19.00;71.70;;;;;;5001356;28;20189;-72
2021/08/07 02:01:48;;;;;;;0.80;0.50;;;19.00;72.60;;;;;;5022930;28;20301;-72
2021/08/07 02:04:15;;;;;;;0.40;0.40;;;18.90;71.70;;;;;;5021467;28;20200;-72
2021/08/07 02:06:45;;;;;;;0.60;0.40;;;18.90;71.70;;;;;;5025337;28;20199;-73
2021/08/07 02:09:12;;;;;;;0.40;0.40;;;18.90;72.10;;;;;;5020817;28;20281;-73
2021/08/07 02:11:42;;;;;;;0.30;0.30;;;18.80;73.00;;;;;;5026200;28;20251;-72
2021/08/07 02:14:09;;;;;;;0.50;0.50;;;18.80;72.30;;;;;;5013355;28;20197;-71
2021/08/07 02:16:37;;;;;;;0.40;0.40;;;18.80;72.80;;;;;;5016006;28;20275;-73
2021/08/07 02:19:07;;;;;;;0.52;0.40;;;18.80;72.20;;;;;;5021750;28;20197;-71
2021/08/07 02:21:33;;;;;;;0.47;0.47;;;18.80;72.40;;;;;;5019426;28;20184;-72
2021/08/07 02:23:59;;;;;;;0.50;0.50;;;18.80;72.10;;;;;;5024341;28;20204;-72
2021/08/07 02:26:27;;;;;;;0.60;0.60;;;18.90;72.50;;;;;;5022790;28;20784;-73
2021/08/07 02:28:54;;;;;;;1.70;0.50;;;18.80;72.20;;;;;;5014223;28;20265;-73
2021/08/07 02:31:19;;;;;;;0.52;0.40;;;18.80;72.70;;;;;;5022247;28;20221;-70
2021/08/07 02:33:46;;;;;;;0.40;0.40;;;18.80;72.50;;;;;;5024924;28;20181;-72
2021/08/07 02:36:13;;;;;;;1.00;0.40;;;18.80;72.40;;;;;;5024473;28;20919;-71
2021/08/07 02:38:41;;;;;;;0.57;0.52;;;18.80;72.40;;;;;;4998222;28;20297;-74
2021/08/07 02:41:08;;;;;;;1.80;0.55;;;18.80;72.40;;;;;;5007953;28;20868;-72
2021/08/07 02:43:34;;;;;;;0.38;0.38;;;18.70;72.40;;;;;;5000431;28;20181;-71
2021/08/07 02:46:00;;;;;;;0.35;0.35;;;18.70;72.90;;;;;;5008092;28;20188;-72
2021/08/07 02:48:27;;;;;;;0.32;0.32;;;18.70;72.50;;;;;;5008053;28;20189;-72
2021/08/07 02:50:54;;;;;;;0.45;0.45;;;18.70;72.60;;;;;;5001865;28;20903;-73
2021/08/07 02:53:21;;;;;;;1.48;0.50;;;18.70;72.40;;;;;;5004095;28;20574;-76
2021/08/07 02:55:47;;;;;;;0.38;0.38;;;18.70;72.60;;;;;;5014511;28;20185;-73
2021/08/07 02:58:13;;;;;;;0.50;0.50;;;18.70;72.70;;;;;;5005865;28;20192;-73
2021/08/07 03:00:39;;;;;;;0.63;0.63;;;18.60;72.90;;;;;;5001008;28;20185;-73
2021/08/07 03:03:06;;;;;;;0.40;0.40;;;18.60;72.50;;;;;;4999007;28;20183;-73
2021/08/07 03:05:31;;;;;;;0.80;0.80;;;18.60;73.20;;;;;;5003387;28;20185;-73
2021/08/07 03:07:57;;;;;;;0.30;0.30;;;18.60;73.00;;;;;;5000204;28;20190;-73
2021/08/07 03:10:24;;;;;;;0.30;0.30;;;18.60;73.20;;;;;;5006113;28;20220;-74
2021/08/07 03:12:52;;;;;;;1.38;0.60;;;18.60;73.30;;;;;;5005150;28;20193;-74
2021/08/07 03:15:20;;;;;;;0.40;0.40;;;18.60;73.20;;;;;;5008769;28;20655;-73
2021/08/07 03:17:46;;;;;;;0.43;0.43;;;18.60;72.80;;;;;;4999923;28;20562;-73
2021/08/07 03:20:12;;;;;;;0.50;0.50;;;18.60;72.80;;;;;;5004291;28;20184;-73
2021/08/07 03:22:38;;;;;;;0.40;0.40;;;18.60;73.20;;;;;;5002509;28;20615;-74
2021/08/07 03:25:04;;;;;;;0.40;0.40;;;18.60;73.20;;;;;;4997825;28;20189;-74
2021/08/07 03:27:30;;;;;;;3.70;0.43;;;18.60;73.10;;;;;;5006682;28;20284;-73
2021/08/07 03:29:55;;;;;;;0.40;0.40;;;18.60;73.30;;;;;;5002035;28;20695;-73
2021/08/07 03:32:21;;;;;;;0.40;0.40;;;18.60;73.80;;;;;;5005411;28;20579;-73
2021/08/07 03:34:47;;;;;;;0.90;0.60;;;18.60;73.50;;;;;;5003355;28;20247;-74
2021/08/07 03:37:12;;;;;;;1.08;0.30;;;18.60;73.40;;;;;;5007293;28;20181;-75
2021/08/07 03:39:39;;;;;;;0.45;0.45;;;18.60;73.30;;;;;;5000854;28;20259;-74
2021/08/07 03:42:04;;;;;;;0.38;0.38;;;18.60;73.30;;;;;;5006054;28;20196;-74
2021/08/07 03:44:30;;;;;;;0.50;0.50;;;18.60;73.60;;;;;;4999254;28;20173;-73
2021/08/07 03:46:56;;;;;;;0.50;0.40;;;18.60;73.70;;;;;;5004791;28;20185;-73
2021/08/07 03:49:21;;;;;;;0.73;0.73;;;18.60;73.60;;;;;;5004059;28;20189;-73
2021/08/07 03:51:48;;;;;;;0.47;0.47;;;18.60;73.60;;;;;;5003287;28;20216;-73
2021/08/07 03:54:13;;;;;;;0.50;0.50;;;18.60;73.60;;;;;;5007632;28;20188;-74
2021/08/07 03:56:39;;;;;;;0.50;0.50;;;18.70;73.40;;;;;;5001431;28;20672;-74
2021/08/07 03:59:05;;;;;;;0.40;0.40;;;18.70;73.70;;;;;;5009623;28;20185;-74
2021/08/07 04:01:30;;;;;;;0.95;0.40;;;18.70;73.80;;;;;;5009128;28;20192;-73
2021/08/07 04:03:56;;;;;;;0.52;0.52;;;18.70;73.60;;;;;;5006978;28;20259;-73
2021/08/07 04:06:21;;;;;;;2.97;0.60;;;18.70;73.60;;;;;;5005509;28;20187;-75
2021/08/07 04:08:47;;;;;;;0.80;0.50;;;18.70;73.50;;;;;;5006627;28;20283;-74
2021/08/07 04:11:13;;;;;;;0.40;0.40;;;18.70;73.70;;;;;;5011759;28;20757;-74
2021/08/07 04:13:38;;;;;;;0.50;0.50;;;18.70;73.50;;;;;;5011058;28;20224;-75
2021/08/07 04:16:04;;;;;;;0.63;0.50;;;18.70;73.60;;;;;;5005268;28;20255;-75
2021/08/07 04:18:31;;;;;;;7.32;0.50;;;18.70;73.30;;;;;;5007617;28;20192;-75
2021/08/07 04:20:56;;;;;;;0.43;0.43;;;18.70;73.10;;;;;;5011327;28;20185;-75
2021/08/07 04:23:22;;;;;;;0.40;0.40;;;18.80;73.40;;;;;;5002358;28;20188;-75
2021/08/07 04:25:48;;;;;;;1.65;0.50;;;18.80;73.00;;;;;;5003241;28;20177;-74
2021/08/07 04:28:13;;;;;;;0.47;0.47;;;18.80;73.20;;;;;;5010836;28;20193;-75
2021/08/07 04:30:39;;;;;;;0.47;0.47;;;18.80;73.30;;;;;;5011299;28;20668;-75
2021/08/07 04:33:05;;;;;;;0.50;0.50;;;18.80;73.40;;;;;;5002843;28;20204;-75
2021/08/07 04:35:31;;;;;;;0.40;0.40;;;18.90;73.60;;;;;;5007935;28;20181;-75
2021/08/07 04:37:58;;;;;;;0.47;0.47;;;18.90;72.80;;;;;;4998056;28;20660;-75
2021/08/07 04:40:26;;;;;;;0.40;0.40;;;18.90;72.70;;;;;;5004220;28;20586;-74
2021/08/07 04:42:52;;;;;;;2.85;0.75;;;18.90;72.70;;;;;;5004570;28;20246;-74
2021/08/07 04:45:18;;;;;;;0.95;0.60;;;19.00;72.90;;;;;;5007894;28;20200;-74
2021/08/07 04:47:59;;;;;;;0.50;0.50;;;19.00;72.70;;;;;;5003878;28;20267;-74
2021/08/07 04:50:29;;;;;;;0.45;0.45;;;19.00;72.30;;;;;;4995907;28;20666;-74
2021/08/07 04:52:56;;;;;;;0.50;0.50;;;19.00;72.60;;;;;;4997702;28;20229;-74
2021/08/07 04:55:23;;;;;;;0.70;0.70;;;19.00;72.50;;;;;;5003577;28;20948;-74
2021/08/07 04:57:48;;;;;;;0.65;0.65;;;19.10;72.50;;;;;;5003716;28;20259;-79
2021/08/07 05:00:15;;;;;;;0.75;0.75;;;19.10;72.70;;;;;;5004172;28;20260;-79
2021/08/07 05:02:41;;;;;;;0.82;0.82;;;19.10;72.60;;;;;;5003510;28;20181;-74
2021/08/07 05:05:08;;;;;;;0.70;0.70;;;19.20;73.00;;;;;;5004462;28;20185;-75
2021/08/07 05:07:34;;;;;;;0.73;0.70;;;19.20;72.60;;;;;;5002408;28;20264;-75
2021/08/07 05:10:01;;;;;;;0.50;0.50;;;19.20;73.00;;;;;;4999373;28;21141;-75
2021/08/07 05:12:27;;;;;;;1.30;0.63;;;19.20;73.10;;;;;;5008584;28;20213;-75
2021/08/07 05:14:54;;;;;;;0.85;0.60;;;19.30;73.10;;;;;;5000780;28;20192;-75
2021/08/07 05:17:21;;;;;;;0.60;0.60;;;19.30;72.70;;;;;;5003151;28;21345;-74
2021/08/07 05:19:47;;;;;;;0.75;0.75;;;19.30;72.70;;;;;;5007037;28;20263;-73
2021/08/07 05:22:13;;;;;;;0.50;0.50;;;19.40;73.00;;;;;;5001340;28;20189;-76
2021/08/07 05:24:38;;;;;;;0.60;0.60;;;19.50;72.20;;;;;;5006927;28;20216;-75
2021/08/07 05:27:04;;;;;;;1.88;0.47;;;19.50;72.30;;;;;;5006362;28;20219;-76
2021/08/07 05:29:30;;;;;;;0.47;0.47;;;19.60;72.70;;;;;;5003279;28;20647;-75
2021/08/07 05:31:55;;;;;;;0.70;0.70;;;19.70;72.30;;;;;;5006168;28;20224;-75
2021/08/07 05:34:21;;;;;;;0.47;0.47;;;19.70;72.10;;;;;;5003346;28;20192;-73
2021/08/07 05:36:47;;;;;;;0.50;0.50;;;19.80;72.50;;;;;;5001579;28;20272;-77
2021/08/07 05:39:12;;;;;;;3.03;0.60;;;19.80;71.90;;;;;;5009543;28;20255;-79
2021/08/07 05:41:38;;;;;;;0.73;0.50;;;19.90;72.70;;;;;;5003774;28;20251;-81
2021/08/07 05:44:04;;;;;;;0.47;0.47;;;20.00;71.80;;;;;;4998529;28;20648;-81
2021/08/07 05:46:29;;;;;;;0.43;0.43;;;20.00;71.70;;;;;;4999008;28;20185;-76
2021/08/07 05:48:56;;;;;;;0.40;0.40;;;20.10;71.70;;;;;;5006564;28;20264;-79
2021/08/07 05:51:23;;;;;;;0.40;0.40;;;20.10;71.70;;;;;;5000633;28;20209;-75
2021/08/07 05:53:49;;;;;;;0.40;0.40;;;20.10;71.50;;;;;;5006815;28;20693;-75
2021/08/07 05:56:15;;;;;;;0.40;0.40;;;20.20;72.00;;;;;;5008337;28;20267;-75
2021/08/07 05:58:40;;;;;;;0.40;0.40;;;20.30;71.70;;;;;;5002337;28;20695;-75
2021/08/07 06:01:07;;;;;;;0.50;0.50;;;20.30;71.60;;;;;;5005666;28;20185;-77
2021/08/07 06:03:33;;;;;;;0.68;0.68;;;20.40;71.70;;;;;;4998264;28;20608;-77
2021/08/07 06:05:59;;;;;;;0.50;0.50;;;20.50;71.40;;;;;;5004626;28;20188;-77
2021/08/07 06:08:25;;;;;;;0.60;0.60;;;20.50;71.50;;;;;;5007208;28;20185;-76
2021/08/07 06:10:51;;;;;;;0.50;0.50;;;20.50;71.70;;;;;;4967338;28;1202102;-76
2021/08/07 06:13:17;;;;;;;0.50;0.50;;;20.60;71.40;;;;;;5008149;28;20173;-76
2021/08/07 06:15:43;;;;;;;0.63;0.63;;;20.70;71.00;;;;;;5009756;28;20192;-77
2021/08/07 06:18:08;;;;;;;0.47;0.47;;;20.70;71.10;;;;;;5007406;28;20624;-76
2021/08/07 06:20:34;;;;;;;0.50;0.50;;;20.80;70.70;;;;;;4996159;28;20244;-77
2021/08/07 06:23:00;;;;;;;0.60;0.60;;;20.80;71.30;;;;;;4999866;28;20595;-76
2021/08/07 06:25:26;;;;;;;0.52;0.52;;;20.90;70.30;;;;;;5006425;28;20189;-75
2021/08/07 06:27:54;;;;;;;0.60;0.60;;;20.90;70.30;;;;;;5005490;28;20597;-76
2021/08/07 06:30:20;;;;;;;0.40;0.40;;;21.00;70.00;;;;;;5002850;28;20200;-76
2021/08/07 06:32:46;;;;;;;0.60;0.47;;;21.10;70.60;;;;;;4999595;28;20189;-75
2021/08/07 06:35:12;;;;;;;0.60;0.60;;;21.20;70.50;;;;;;5005703;28;20243;-75
2021/08/07 06:37:37;;;;;;;0.35;0.35;;;21.20;70.00;;;;;;5015790;28;20591;-76
2021/08/07 06:40:04;;;;;;;0.60;0.50;;;21.30;69.60;;;;;;5017584;28;20717;-76
2021/08/07 06:42:30;;;;;;;0.77;0.77;;;21.40;69.30;;;;;;5000875;28;20188;-77
2021/08/07 06:44:55;;;;;;;0.47;0.47;;;21.40;69.50;;;;;;5009639;28;20181;-75
2021/08/07 06:47:21;;;;;;;0.43;0.40;;;21.40;69.20;;;;;;5019227;28;20185;-78
2021/08/07 06:49:47;;;;;;;2.38;0.80;;;21.50;69.60;;;;;;5030866;28;20252;-77
2021/08/07 06:52:12;;;;;;;0.40;0.40;;;21.50;69.60;;;;;;5010059;28;20613;-76
2021/08/07 06:54:38;;;;;;;0.40;0.40;;;21.40;69.00;;;;;;5006147;28;20592;-75
2021/08/07 06:57:04;;;;;;;0.40;0.40;;;21.40;69.20;;;;;;5006310;28;20192;-75
2021/08/07 06:59:29;;;;;;;0.40;0.40;;;21.40;69.40;;;;;;5004685;28;20188;-76
2021/08/07 07:01:56;;;;;;;0.40;0.40;;;21.40;69.20;;;;;;4997216;28;20213;-76
2021/08/07 07:04:21;;;;;;;0.45;0.40;;;21.40;69.10;;;;;;5004919;28;20193;-76
2021/08/07 07:06:47;;;;;;;0.40;0.40;;;21.50;69.00;;;;;;5008363;28;20275;-77
2021/08/07 07:09:14;;;;;;;0.43;0.43;;;21.50;68.50;;;;;;5005506;28;20200;-75
2021/08/07 07:11:40;;;;;;;0.32;0.32;;;21.60;68.60;;;;;;4998179;28;20255;-75
2021/08/07 07:14:06;;;;;;;0.30;0.30;;;21.60;68.60;;;;;;5005164;28;20275;-76
2021/08/07 07:16:32;;;;;;;0.75;0.40;;;21.60;69.00;;;;;;4992398;28;20185;-77
2021/08/07 07:18:58;;;;;;;0.47;0.47;;;21.70;68.20;;;;;;5004189;28;20291;-76
2021/08/07 07:21:25;;;;;;;0.40;0.40;;;21.70;68.30;;;;;;4998160;28;20209;-76
2021/08/07 07:23:51;;;;;;;0.35;0.35;;;21.80;67.60;;;;;;5007315;28;20177;-74
2021/08/07 07:26:16;;;;;;;0.30;0.30;;;21.80;67.20;;;;;;5001067;28;20177;-75
2021/08/07 07:28:42;;;;;;;0.47;0.47;;;21.90;66.70;;;;;;5001261;28;20176;-75
2021/08/07 07:31:08;;;;;;;0.38;0.38;;;21.90;66.30;;;;;;5007684;28;20709;-75
2021/08/07 07:33:33;;;;;;;0.40;0.40;;;22.00;65.50;;;;;;5017047;28;20187;-76
2021/08/07 07:35:59;;;;;;;1.20;0.40;;;22.00;65.80;;;;;;5007757;28;20185;-75
2021/08/07 07:38:25;;;;;;;0.70;0.68;;;22.00;66.10;;;;;;5007472;28;20181;-76
2021/08/07 07:40:52;;;;;;;0.40;0.40;;;22.10;66.10;;;;;;4996900;28;20646;-74
2021/08/07 07:43:20;;;;;;;0.47;0.47;;;22.20;66.00;;;;;;5007556;28;20197;-74
2021/08/07 07:45:46;;;;;;;0.40;0.40;;;22.20;65.50;;;;;;5007747;28;20661;-73
2021/08/07 07:48:12;;;;;;;0.40;0.40;;;22.20;65.70;;;;;;4994818;28;20181;-73
2021/08/07 07:50:38;;;;;;;0.30;0.30;;;22.30;65.50;;;;;;4995543;28;20209;-74
2021/08/07 07:53:03;;;;;;;0.43;0.40;;;22.40;65.50;;;;;;5004649;28;20801;-74
2021/08/07 07:55:29;;;;;;;0.73;0.40;;;22.50;65.50;;;;;;5000078;28;20186;-74
2021/08/07 07:58:00;;;;;;;0.50;0.50;;;22.60;65.60;;;;;;5008086;28;20618;-75
2021/08/07 08:00:26;;;;;;;0.30;0.30;;;22.60;65.30;;;;;;5000377;28;20193;-75
2021/08/07 08:02:52;;;;;;;0.68;0.40;;;22.70;65.40;;;;;;5004510;28;20185;-74
2021/08/07 08:05:18;;;;;;;3.00;0.50;;;22.80;65.50;;;;;;5000532;28;20191;-74
2021/08/07 08:07:44;;;;;;;0.38;0.38;;;22.80;64.90;;;;;;4996246;28;20191;-74
2021/08/07 08:10:15;;;;;;;1.05;0.40;;;22.90;64.80;;;;;;5002019;28;20591;-75
2021/08/07 08:12:41;;;;;;;0.30;0.30;;;23.00;64.80;;;;;;4999717;28;20696;-74
2021/08/07 08:15:07;;;;;;;0.60;0.60;;;23.00;64.30;;;;;;5000516;28;20215;-76
2021/08/07 08:17:34;;;;;;;0.30;0.30;;;23.00;64.00;;;;;;4999442;28;20268;-75
2021/08/07 08:20:00;;;;;;;0.40;0.40;;;23.10;64.30;;;;;;4996617;28;20185;-74
2021/08/07 08:22:25;;;;;;;0.93;0.50;;;23.10;64.20;;;;;;5006464;28;20585;-74
2021/08/07 08:24:51;;;;;;;0.63;0.52;;;23.20;64.40;;;;;;5005372;28;20207;-73
2021/08/07 08:27:19;;;;;;;2.05;0.35;;;23.30;64.70;;;;;;5007577;28;20194;-74
2021/08/07 08:29:45;;;;;;;0.30;0.30;;;23.40;64.40;;;;;;5011107;28;20292;-76
2021/08/07 08:32:12;;;;;;;0.38;0.38;;;23.40;64.60;;;;;;5007463;28;20212;-74
2021/08/07 08:34:39;;;;;;;0.50;0.50;;;23.50;64.70;;;;;;5002905;28;20300;-74
2021/08/07 08:37:04;;;;;;;0.30;0.30;;;23.60;64.40;;;;;;4999687;28;20212;-73
2021/08/07 08:39:30;;;;;;;0.30;0.30;;;23.70;64.30;;;;;;5003685;28;20703;-73
2021/08/07 08:41:56;;;;;;;0.35;0.35;;;23.80;64.00;;;;;;5004079;28;20828;-73
2021/08/07 08:44:22;;;;;;;0.40;0.40;;;23.90;64.00;;;;;;5000848;28;20170;-73
2021/08/07 08:46:48;;;;;;;0.57;0.57;;;24.00;63.90;;;;;;5010656;28;20651;-72
2021/08/07 08:49:18;;;;;;;0.85;0.50;;;24.10;63.60;;;;;;5010825;28;20189;-72
2021/08/07 08:51:45;;;;;;;1.75;0.50;;;24.20;63.50;;;;;;5010428;28;20304;-73
2021/08/07 08:54:11;;;;;;;0.40;0.40;;;24.30;63.60;;;;;;5010138;28;20185;-72
2021/08/07 08:56:38;;;;;;;0.22;0.22;;;24.50;63.00;;;;;;5006983;28;20178;-73
2021/08/07 08:59:09;;;;;;;0.35;0.35;;;24.50;62.40;;;;;;5003513;28;20921;-74
2021/08/07 09:01:36;;;;;;;0.30;0.30;;;24.60;62.60;;;;;;5006497;28;20192;-74
2021/08/07 09:04:04;;;;;;;0.40;0.40;;;24.70;62.90;;;;;;5003781;28;20181;-73
2021/08/07 09:06:34;;;;;;;0.40;0.40;;;24.80;62.90;;;;;;5004196;28;20186;-74
2021/08/07 09:09:11;;;;;;;0.38;0.38;;;24.90;61.20;;;;;;5004286;28;20202;-74
2021/08/07 09:11:47;;;;;;;1.65;0.45;;;25.00;61.10;;;;;;5007234;28;20217;-74
2021/08/07 09:14:35;;;;;;;0.30;0.30;;;25.10;61.80;;;;;;4996582;28;20193;-74
2021/08/07 09:17:00;;;;;;;0.40;0.40;;;25.20;62.20;;;;;;5008700;28;20255;-74
2021/08/07 09:19:27;;;;;;;0.40;0.40;;;25.30;61.40;;;;;;5001876;28;20205;-74
2021/08/07 09:22:11;;;;;;;0.40;0.40;;;25.40;61.10;;;;;;5009407;28;20660;-74
2021/08/07 09:25:12;;;;;;;0.50;0.50;;;25.50;60.60;;;;;;5009195;28;20191;-74
2021/08/07 09:27:49;;;;;;;0.40;0.40;;;25.60;60.70;;;;;;5006765;28;20575;-74
2021/08/07 09:30:18;;;;;;;0.38;0.38;;;25.70;61.10;;;;;;5009767;28;20180;-74
2021/08/07 09:32:47;;;;;;;0.30;0.30;;;25.90;60.50;;;;;;5002927;28;20700;-74
2021/08/07 09:35:15;;;;;;;5.30;0.70;;;26.10;59.60;;;;;;5002998;28;20177;-74
2021/08/07 09:37:42;;;;;;;3.50;0.45;;;26.30;59.50;;;;;;5009645;28;20792;-74
2021/08/07 09:40:10;;;;;;;0.85;0.50;;;26.50;59.00;;;;;;5009578;28;20181;-74
2021/08/07 09:42:53;;;;;;;0.35;0.35;;;26.90;58.40;;;;;;5009696;28;20612;-73
2021/08/07 09:45:24;;;;;;;0.40;0.40;;;27.30;57.80;;;;;;5009895;28;20188;-74
2021/08/07 09:48:05;;;;;;;1.40;0.40;;;27.60;56.60;;;;;;5010002;28;20181;-73
2021/08/07 09:50:32;;;;;;;0.30;0.30;;;27.90;56.30;;;;;;5004018;28;20208;-72
2021/08/07 09:52:59;;;;;;;0.40;0.40;;;28.30;56.30;;;;;;5008532;28;20273;-73
2021/08/07 09:55:25;;;;;;;0.40;0.40;;;28.70;55.40;;;;;;5008213;28;20299;-74
2021/08/07 09:58:07;;;;;;;0.82;0.50;;;29.10;55.00;;;;;;5003472;28;20277;-73
2021/08/07 10:00:36;;;;;;;0.40;0.40;;;29.60;54.50;;;;;;5003286;28;20177;-73
2021/08/07 10:03:27;;;;;;;0.43;0.40;;;30.10;53.50;;;;;;5004702;28;20173;-74
2021/08/07 10:05:54;;;;;;;0.43;0.43;;;30.90;51.60;;;;;;5002610;28;20181;-74
2021/08/07 10:08:20;;;;;;;0.30;0.30;;;31.60;51.40;;;;;;5007556;28;20216;-73
2021/08/07 10:10:50;;;;;;;0.60;0.50;;;32.20;50.00;;;;;;5009366;28;20228;-73
2021/08/07 10:13:16;;;;;;;0.40;0.40;;;33.00;49.20;;;;;;5002936;28;20196;-73
2021/08/07 10:15:43;;;;;;;0.43;0.43;;;33.70;49.00;;;;;;5009270;28;20665;-73
2021/08/07 10:18:09;;;;;;;0.40;0.40;;;34.50;48.30;;;;;;5009142;28;20272;-74
2021/08/07 10:20:37;;;;;;;1.38;0.40;;;35.10;47.20;;;;;;5003117;28;20192;-74
2021/08/07 10:23:04;;;;;;;0.60;0.60;;;35.70;46.40;;;;;;5008997;28;20170;-74
2021/08/07 10:25:30;;;;;;;0.40;0.38;;;36.40;47.40;;;;;;5002386;28;20658;-74
2021/08/07 10:27:59;;;;;;;0.90;0.30;;;36.90;46.30;;;;;;5022485;28;20214;-75
2021/08/07 10:30:27;;;;;;;0.40;0.40;;;37.20;46.10;;;;;;5007932;28;20177;-75
2021/08/07 10:32:56;;;;;;;0.75;0.50;;;37.50;44.30;;;;;;4995678;28;20189;-73
2021/08/07 10:35:25;;;;;;;0.40;0.40;;;37.80;45.20;;;;;;5008612;28;20819;-74
2021/08/07 10:37:51;;;;;;;0.40;0.40;;;38.20;44.10;;;;;;5008852;28;20263;-74
2021/08/07 10:40:16;;;;;;;0.50;0.50;;;38.70;44.50;;;;;;5008687;28;20255;-74
2021/08/07 10:42:45;;;;;;;1.75;0.73;;;39.10;43.10;;;;;;5007883;28;20682;-74
2021/08/07 10:45:11;;;;;;;0.30;0.30;;;39.40;43.60;;;;;;4996453;28;20181;-73
2021/08/07 10:47:46;;;;;;;0.45;0.40;;;39.60;43.00;;;;;;5008386;28;20189;-74
2021/08/07 10:50:34;;;;;;;0.40;0.40;;;39.90;43.30;;;;;;5002101;28;20211;-74
2021/08/07 10:53:02;;;;;;;0.35;0.35;;;40.10;42.10;;;;;;4999589;28;20693;-74
2021/08/07 10:55:49;;;;;;;0.35;0.30;;;40.30;43.30;;;;;;5008282;28;20543;-73
2021/08/07 10:58:38;;;;;;;0.30;0.30;;;40.50;41.50;;;;;;5003793;28;20176;-74
2021/08/07 11:01:25;;;;;;;0.32;0.32;;;40.80;40.40;;;;;;5008227;28;20192;-74
2021/08/07 11:04:15;;;;;;;0.28;0.28;;;41.20;40.10;;;;;;5002753;28;20271;-74
2021/08/07 11:06:41;;;;;;;0.30;0.30;;;41.50;40.20;;;;;;5007943;28;20177;-74
2021/08/07 11:09:20;;;;;;;0.40;0.40;;;41.60;41.10;;;;;;5005232;28;20692;-74
2021/08/07 11:11:49;;;;;;;0.30;0.30;;;41.50;39.00;;;;;;5007766;28;20231;-73
2021/08/07 11:14:21;;;;;;;1.65;0.38;;;41.40;40.40;;;;;;5008407;28;20180;-73
2021/08/07 11:17:10;;;;;;;0.30;0.30;;;41.30;40.10;;;;;;5003137;28;20268;-75
2021/08/07 11:20:00;;;;;;;1.85;0.30;;;41.10;40.80;;;;;;4966231;28;20240;-74
2021/08/07 11:22:32;;;;;;;0.30;0.30;;;41.30;41.00;;;;;;4966143;28;20981;-74
2021/08/07 11:25:11;;;;;;;0.30;0.30;;;41.50;41.10;;;;;;4949701;28;20216;-74
2021/08/07 11:30:22;;;;;;;0.50;0.50;;;41.70;40.40;;;;;;4965284;28;20192;-73
2021/08/07 11:33:04;;;;;;;0.30;0.30;;;42.00;39.70;;;;;;4965922;28;20201;-74
2021/08/07 11:38:15;;;;;;;0.30;0.30;;;43.20;40.50;;;;;;4960084;28;20333;-73
2021/08/07 11:40:49;;;;;;;0.30;0.30;;;43.80;39.90;;;;;;4962789;28;20192;-73
2021/08/07 11:43:23;;;;;;;0.40;0.40;;;44.20;38.20;;;;;;4965638;28;20194;-74
2021/08/07 11:46:10;;;;;;;0.40;0.40;;;44.60;38.30;;;;;;4961082;28;20193;-73
2021/08/07 11:48:41;;;;;;;0.30;0.30;;;44.80;37.60;;;;;;4962668;28;20589;-73
2021/08/07 11:51:12;;;;;;;0.63;0.40;;;44.90;38.60;;;;;;4960487;28;20237;-74
2021/08/07 11:53:41;;;;;;;0.40;0.40;;;45.10;38.20;;;;;;4965385;28;20197;-78
2021/08/07 11:56:06;;;;;;;0.30;0.30;;;45.30;37.70;;;;;;4969970;28;20197;-75
2021/08/07 11:58:40;;;;;;;0.40;0.40;;;45.50;38.80;;;;;;5003038;28;20187;-76
2021/08/07 12:01:06;;;;;;;0.30;0.30;;;45.60;37.70;;;;;;4993078;28;20258;-76
2021/08/07 12:03:48;;;;;;;0.40;0.40;;;45.60;39.00;;;;;;5003035;28;20177;-75
2021/08/07 12:06:16;;;;;;;0.30;0.30;;;45.20;37.20;;;;;;4999731;28;20198;-78
2021/08/07 12:08:42;;;;;;;0.40;0.40;;;45.10;39.60;;;;;;5000363;28;20635;-76
2021/08/07 12:11:13;;;;;;;0.40;0.40;;;45.40;39.30;;;;;;5000509;28;20307;-76
2021/08/07 12:13:59;;;;;;;0.20;0.20;;;45.70;38.70;;;;;;4996615;28;20232;-75
2021/08/07 12:16:33;;;;;;;0.32;0.32;;;45.90;36.40;;;;;;5000659;28;20656;-76
2021/08/07 12:19:02;;;;;;;0.30;0.30;;;45.80;36.60;;;;;;5001519;28;20586;-77
2021/08/07 12:21:32;;;;;;;0.63;0.50;;;45.10;38.90;;;;;;5001790;28;20323;-76
2021/08/07 12:24:00;;;;;;;0.30;0.30;;;44.70;37.60;;;;;;5002801;28;21047;-76
2021/08/07 12:26:27;;;;;;;1.30;0.40;;;44.80;38.60;;;;;;5002128;28;20196;-76
2021/08/07 12:28:59;;;;;;;0.40;0.40;;;45.10;40.00;;;;;;5000178;28;20344;-76
2021/08/07 12:31:48;;;;;;;0.57;0.30;;;45.20;38.40;;;;;;4998818;28;20761;-75
2021/08/07 12:34:16;;;;;;;0.40;0.40;;;45.40;37.20;;;;;;5006374;28;20251;-75
2021/08/07 12:36:54;;;;;;;0.38;0.38;;;45.70;38.80;;;;;;5009318;28;20215;-74
2021/08/07 12:39:19;;;;;;;0.63;0.63;;;46.00;37.40;;;;;;5010156;28;20261;-75
2021/08/07 12:41:45;;;;;;;0.40;0.40;;;46.30;37.80;;;;;;5007954;28;20173;-75
2021/08/07 12:44:26;;;;;;;0.30;0.30;;;46.60;37.20;;;;;;5007461;28;20173;-75
2021/08/07 12:46:54;;;;;;;0.40;0.40;;;47.10;36.20;;;;;;5007847;28;20271;-75
2021/08/07 12:49:39;;;;;;;0.30;0.30;;;47.30;37.00;;;;;;5009859;28;20227;-75
2021/08/07 12:52:07;;;;;;;0.40;0.40;;;47.70;35.60;;;;;;5000484;28;20220;-75
2021/08/07 12:54:33;;;;;;;0.40;0.40;;;47.90;36.90;;;;;;5009845;28;20181;-74
2021/08/07 12:56:59;;;;;;;0.32;0.32;;;48.10;36.90;;;;;;5008481;28;20223;-74
2021/08/07 12:59:25;;;;;;;0.40;0.40;;;48.30;36.10;;;;;;5009962;28;20726;-74
2021/08/07 13:02:17;;;;;;;0.32;0.32;;;48.40;37.50;;;;;;4998362;28;20240;-74